createdAt,value
2022-11-23T00:00:04.217Z,98509.03
2022-11-23T00:03:06.644Z,98507.34
2022-11-23T00:06:08.499Z,98519.94
2022-11-23T00:09:11.335Z,98515.59
2022-11-23T00:12:13.163Z,98522.31
2022-11-23T00:15:15.431Z,98531.19
2022-11-23T00:18:17.261Z,98539.22
2022-11-23T00:21:19.529Z,98531.19
2022-11-23T00:24:21.333Z,98545.25
2022-11-23T00:27:23.144Z,98538.28
2022-11-23T00:30:24.945Z,98552.31
2022-11-23T00:33:27.569Z,98548.13
2022-11-23T00:36:29.456Z,98561.16
2022-11-23T00:39:34.195Z,98559.25
2022-11-23T00:42:38.289Z,98554.69
2022-11-23T00:45:40.342Z,98559.72
2022-11-23T00:48:48.506Z,98555.09
2022-11-23T00:51:50.385Z,98555.78
2022-11-23T00:54:53.139Z,98562.72
2022-11-23T00:57:55.050Z,98557.44
2022-11-23T01:01:06.743Z,98558.38
2022-11-23T01:04:10.039Z,98564.16
2022-11-23T01:07:11.847Z,98568.47
2022-11-23T01:10:15.072Z,98577.94
2022-11-23T01:13:16.869Z,98584.41
2022-11-23T01:16:24.799Z,98573.38
2022-11-23T01:19:26.769Z,98580.81
2022-11-23T01:22:28.495Z,98576.03
2022-11-23T01:25:30.309Z,98567.75
2022-11-23T01:28:33.983Z,98582.59
2022-11-23T01:31:35.819Z,98584.91
2022-11-23T01:34:37.734Z,98589.69
2022-11-23T01:37:39.673Z,98593.03
2022-11-23T01:40:44.576Z,98584.53
2022-11-23T01:43:46.800Z,98592.78
2022-11-23T01:46:48.580Z,98595.53
2022-11-23T01:49:52.782Z,98593.75
2022-11-23T01:52:55.046Z,98596.13
2022-11-23T01:56:00.974Z,98596.72
2022-11-23T01:59:07.965Z,98596.38
2022-11-23T02:02:09.953Z,98605.25
2022-11-23T02:05:11.871Z,98606.09
2022-11-23T02:08:16.907Z,98617.47
2022-11-23T02:11:19.849Z,98623.25
2022-11-23T02:14:23.668Z,98625.41
2022-11-23T02:17:29.382Z,98629.59
2022-11-23T02:20:31.974Z,98627.56
2022-11-23T02:23:59.990Z,98629.59
2022-11-23T02:27:03.502Z,98622.28
2022-11-23T02:30:05.777Z,98637.84
2022-11-23T02:33:07.741Z,98637.25
2022-11-23T02:36:46.570Z,98648.28
2022-11-23T02:39:53.710Z,98652.22
2022-11-23T02:42:55.795Z,98648.75
2022-11-23T02:46:01.204Z,98647.19
2022-11-23T02:49:03.039Z,98651.03
2022-11-23T02:52:05.140Z,98656.19
2022-11-23T02:55:07.253Z,98661.47
2022-11-23T02:58:09.467Z,98662.91
2022-11-23T03:01:11.290Z,98667.34
2022-11-23T03:04:13.462Z,98665.41
2022-11-23T03:07:15.332Z,98667.09
2022-11-23T03:10:18.524Z,98669.84
2022-11-23T03:13:22.085Z,98669.84
2022-11-23T03:16:24.290Z,98670.34
2022-11-23T03:19:26.160Z,98671.41
2022-11-23T03:22:28.862Z,98668.53
2022-11-23T03:25:31.324Z,98668.53
2022-11-23T03:28:33.866Z,98674.28
2022-11-23T03:31:35.946Z,98666.38
2022-11-23T03:34:40.160Z,98667.22
2022-11-23T03:37:42.850Z,98664.34
2022-11-23T03:40:46.051Z,98664.69
2022-11-23T03:43:54.806Z,98656.78
2022-11-23T03:46:57.540Z,98675.00
2022-11-23T03:50:01.154Z,98675.84
2022-11-23T03:53:06.264Z,98681.00
2022-11-23T03:56:08.788Z,98676.69
2022-11-23T03:59:16.075Z,98676.81
2022-11-23T04:02:17.963Z,98681.00
2022-11-23T04:05:32.803Z,98676.69
2022-11-23T04:09:00.380Z,98672.13
2022-11-23T04:12:20.869Z,98676.69
2022-11-23T04:15:22.598Z,98677.41
2022-11-23T04:18:24.817Z,98679.06
2022-11-23T04:21:27.537Z,98672.59
2022-11-23T04:24:29.436Z,98668.66
2022-11-23T04:27:34.248Z,98686.28
2022-11-23T04:30:36.077Z,98679.09
2022-11-23T04:33:37.940Z,98686.63
2022-11-23T04:36:40.216Z,98675.72
2022-11-23T04:39:43.579Z,98683.16
2022-11-23T04:43:00.217Z,98675.59
2022-11-23T04:46:04.775Z,98680.16
2022-11-23T04:49:09.228Z,98688.06
2022-11-23T04:52:12.550Z,98681.47
2022-11-23T04:55:20.364Z,98690.59
2022-11-23T04:58:34.490Z,98691.31
2022-11-23T05:01:37.195Z,98697.19
2022-11-23T05:05:14.184Z,98702.47
2022-11-23T05:08:17.443Z,98707.13
2022-11-23T05:11:42.452Z,98712.28
2022-11-23T05:14:45.784Z,98721.28
2022-11-23T05:17:57.737Z,98728.47
2022-11-23T05:21:01.187Z,98730.03
2022-11-23T05:24:04.232Z,98735.63
2022-11-23T05:27:06.431Z,98734.91
2022-11-23T05:30:09.057Z,98742.59
2022-11-23T05:33:12.476Z,98745.13
2022-11-23T05:36:15.189Z,98748.72
2022-11-23T05:39:17.497Z,98748.72
2022-11-23T05:42:21.067Z,98757.72
2022-11-23T05:45:24.290Z,98748.72
2022-11-23T05:48:28.931Z,98758.69
2022-11-23T05:51:32.872Z,98753.03
2022-11-23T05:54:35.472Z,98766.84
2022-11-23T05:57:42.799Z,98759.38
2022-11-23T06:00:46.229Z,98761.19
2022-11-23T06:03:52.284Z,98761.19
2022-11-23T06:07:00.980Z,98768.38
2022-11-23T06:10:09.833Z,98774.63
2022-11-23T06:13:15.266Z,98784.09
2022-11-23T06:16:19.543Z,98780.13
2022-11-23T06:19:34.148Z,98779.28
2022-11-23T06:22:37.097Z,98785.03
2022-11-23T06:25:41.341Z,98789.25
2022-11-23T06:29:11.975Z,98792.72
2022-11-23T06:32:15.210Z,98788.88
2022-11-23T06:35:17.957Z,98800.63
2022-11-23T06:38:20.411Z,98808.78
2022-11-23T06:41:30.941Z,98807.81
2022-11-23T06:44:34.454Z,98798.00
2022-11-23T06:47:36.421Z,98808.69
2022-11-23T06:50:39.118Z,98812.88
2022-11-23T06:53:41.585Z,98813.94
2022-11-23T06:56:44.752Z,98816.47
2022-11-23T06:59:47.011Z,98817.19
2022-11-23T07:02:55.046Z,98824.34
2022-11-23T07:05:59.170Z,98826.53
2022-11-23T07:09:03.775Z,98829.25
2022-11-23T07:12:29.792Z,98826.28
2022-11-23T07:15:36.263Z,98833.97
2022-11-23T07:18:38.155Z,98840.31
2022-11-23T07:21:41.342Z,98844.06
2022-11-23T07:24:46.707Z,98837.22
2022-11-23T07:27:55.329Z,98845.47
2022-11-23T07:30:57.861Z,98841.41
2022-11-23T07:33:59.709Z,98838.28
2022-11-23T07:37:03.292Z,98846.69
2022-11-23T07:40:08.509Z,98851.84
2022-11-23T07:43:11.178Z,98855.19
2022-11-23T07:46:13.046Z,98849.81
2022-11-23T07:49:14.815Z,98849.22
2022-11-23T07:52:16.707Z,98852.00
2022-11-23T07:55:18.609Z,98862.19
2022-11-23T07:58:20.430Z,98861.56
2022-11-23T08:01:22.302Z,98862.19
2022-11-23T08:04:24.360Z,98860.75
2022-11-23T08:07:26.148Z,98860.38
2022-11-23T08:10:29.302Z,98870.47
2022-11-23T08:13:32.199Z,98871.19
2022-11-23T08:16:34.065Z,98875.84
2022-11-23T08:19:36.101Z,98875.84
2022-11-23T08:22:37.846Z,98875.38
2022-11-23T08:25:39.707Z,98876.19
2022-11-23T08:28:41.489Z,98881.09
2022-11-23T08:31:43.901Z,98889.16
2022-11-23T08:34:45.732Z,98881.59
2022-11-23T08:37:47.589Z,98888.81
2022-11-23T08:40:49.583Z,98883.41
2022-11-23T08:43:51.696Z,98881.47
2022-11-23T08:46:54.345Z,98883.28
2022-11-23T08:49:56.143Z,98880.28
2022-11-23T08:52:59.810Z,98881.75
2022-11-23T08:56:02.893Z,98874.66
2022-11-23T08:59:04.650Z,98883.78
2022-11-23T09:02:06.575Z,98879.94
2022-11-23T09:05:09.478Z,98883.91
2022-11-23T09:08:11.305Z,98887.22
2022-11-23T09:11:14.336Z,98879.56
2022-11-23T09:14:16.059Z,98879.81
2022-11-23T09:17:17.903Z,98876.94
2022-11-23T09:20:19.685Z,98876.06
2022-11-23T09:23:21.602Z,98869.97
2022-11-23T09:26:23.478Z,98866.03
2022-11-23T09:29:25.630Z,98875.03
2022-11-23T09:32:27.825Z,98867.72
2022-11-23T09:35:29.917Z,98878.50
2022-11-23T09:38:55.722Z,98871.06
2022-11-23T09:42:15.541Z,98871.91
2022-11-23T09:45:30.547Z,98882.47
2022-11-23T09:48:45.241Z,98885.59
2022-11-23T09:51:48.195Z,98876.97
2022-11-23T09:54:52.457Z,98885.56
2022-11-23T09:57:59.865Z,98875.59
2022-11-23T10:01:16.144Z,98875.09
2022-11-23T10:04:20.290Z,98884.72
2022-11-23T10:07:25.143Z,98890.31
2022-11-23T10:10:41.558Z,98886.00
2022-11-23T10:14:02.312Z,98896.59
2022-11-23T10:17:22.263Z,98895.22
2022-11-23T10:20:26.818Z,98898.97
2022-11-23T10:24:01.052Z,98896.34
2022-11-23T10:27:04.122Z,98898.03
2022-11-23T10:30:12.910Z,98907.50
2022-11-23T10:33:30.887Z,98894.94
2022-11-23T10:36:36.067Z,98896.41
2022-11-23T10:39:38.221Z,98898.97
2022-11-23T10:42:47.526Z,98902.56
2022-11-23T10:45:49.289Z,98902.34
2022-11-23T10:48:52.788Z,98901.13
2022-11-23T10:51:56.257Z,98904.03
2022-11-23T10:55:00.319Z,98910.00
2022-11-23T10:58:02.221Z,98902.59
2022-11-23T11:01:24.979Z,98911.13
2022-11-23T11:04:29.181Z,98911.00
2022-11-23T11:07:31.600Z,98911.00
2022-11-23T11:10:40.622Z,98910.75
2022-11-23T11:13:47.844Z,98900.22
2022-11-23T11:16:56.775Z,98905.75
2022-11-23T11:19:59.604Z,98908.25
2022-11-23T11:23:17.582Z,98911.00
2022-11-23T11:26:22.876Z,98922.59
2022-11-23T11:29:40.016Z,98933.28
2022-11-23T11:32:54.097Z,98935.47
2022-11-23T11:35:56.930Z,98925.63
2022-11-23T11:39:17.551Z,98932.59
2022-11-23T11:42:33.607Z,98926.81
2022-11-23T11:45:54.495Z,98926.00
2022-11-23T11:49:11.169Z,98918.91
2022-11-23T11:52:22.274Z,98924.91
2022-11-23T11:55:39.487Z,98920.09
2022-11-23T11:58:50.926Z,98924.06
2022-11-23T12:02:14.537Z,98928.50
2022-11-23T12:05:27.379Z,98942.19
2022-11-23T12:09:12.852Z,98940.88
2022-11-23T12:12:18.154Z,98942.22
2022-11-23T12:15:48.230Z,98944.84
2022-11-23T12:19:01.210Z,98957.81
2022-11-23T12:22:21.130Z,98954.59
